createdAt,value
2017-11-07T00:00:54.069Z,12.70
2017-11-07T00:03:20.404Z,10.23
2017-11-07T00:05:46.684Z,17.10
2017-11-07T00:08:13.771Z,15.37
2017-11-07T00:10:40.070Z,17.73
2017-11-07T00:13:07.141Z,17.53
2017-11-07T00:15:33.458Z,16.60
2017-11-07T00:17:59.754Z,15.93
2017-11-07T00:20:26.076Z,18.83
2017-11-07T00:22:52.381Z,11.83
2017-11-07T00:25:18.689Z,11.03
2017-11-07T00:27:44.992Z,14.70
2017-11-07T00:30:12.476Z,13.20
2017-11-07T00:32:38.780Z,18.87
2017-11-07T00:35:05.853Z,16.80
2017-11-07T00:37:32.158Z,15.87
2017-11-07T00:39:59.208Z,18.03
2017-11-07T00:42:26.269Z,14.07
2017-11-07T00:44:52.572Z,13.47
2017-11-07T00:47:19.652Z,15.67
2017-11-07T00:49:45.960Z,18.17
2017-11-07T00:52:13.140Z,17.23
2017-11-07T00:54:39.451Z,15.90
2017-11-07T00:57:05.760Z,17.03
2017-11-07T00:59:32.951Z,19.20
2017-11-07T01:01:59.244Z,17.20
2017-11-07T01:04:26.300Z,19.53
2017-11-07T01:06:53.301Z,15.10
2017-11-07T01:09:19.640Z,18.10
2017-11-07T01:11:45.936Z,21.43
2017-11-07T01:14:12.234Z,21.33
2017-11-07T01:16:39.285Z,16.17
2017-11-07T01:19:06.341Z,15.97
2017-11-07T01:21:32.614Z,34.23
2017-11-07T01:23:58.948Z,17.17
2017-11-07T01:26:25.260Z,20.90
2017-11-07T01:28:51.861Z,15.77
2017-11-07T01:31:18.916Z,20.43
2017-11-07T01:33:45.226Z,21.07
2017-11-07T01:36:12.268Z,17.23
2017-11-07T01:38:39.340Z,18.00
2017-11-07T01:41:05.614Z,25.60
2017-11-07T01:43:31.912Z,14.80
2017-11-07T01:45:58.171Z,17.30
2017-11-07T01:48:24.481Z,17.20
2017-11-07T01:50:50.784Z,19.87
2017-11-07T01:53:17.104Z,19.10
2017-11-07T01:55:44.112Z,16.23
2017-11-07T01:58:10.484Z,20.80
2017-11-07T02:00:37.624Z,17.37
2017-11-07T02:03:04.664Z,16.23
2017-11-07T02:05:31.908Z,16.07
2017-11-07T02:07:58.180Z,19.70
2017-11-07T02:10:24.512Z,17.80
2017-11-07T02:12:50.796Z,23.63
2017-11-07T02:15:17.197Z,15.37
2017-11-07T02:17:43.476Z,17.10
2017-11-07T02:20:10.500Z,16.10
2017-11-07T02:22:37.701Z,16.37
2017-11-07T02:25:03.984Z,19.20
2017-11-07T02:27:30.264Z,19.47
2017-11-07T02:29:56.540Z,19.70
2017-11-07T02:32:22.882Z,17.43
2017-11-07T02:34:49.289Z,15.67
2017-11-07T02:37:15.601Z,17.20
2017-11-07T02:39:41.896Z,13.13
2017-11-07T02:42:08.961Z,22.63
2017-11-07T02:44:35.303Z,15.73
2017-11-07T02:47:01.589Z,22.10
2017-11-07T02:49:28.624Z,17.47
2017-11-07T02:51:54.900Z,23.80
2017-11-07T02:54:21.211Z,17.50
2017-11-07T02:56:47.512Z,20.77
2017-11-07T02:59:13.818Z,17.87
2017-11-07T03:01:40.127Z,17.63
2017-11-07T03:04:06.408Z,17.47
2017-11-07T03:06:33.453Z,17.10
2017-11-07T03:09:00.514Z,22.03
2017-11-07T03:11:26.769Z,16.93
2017-11-07T03:13:53.157Z,19.20
2017-11-07T03:16:19.444Z,21.93
2017-11-07T03:18:45.741Z,18.87
2017-11-07T03:21:12.029Z,24.40
2017-11-07T03:23:38.340Z,20.57
2017-11-07T03:26:04.611Z,16.97
2017-11-07T03:28:31.689Z,26.70
2017-11-07T03:30:58.330Z,19.80
2017-11-07T03:33:24.620Z,18.40
2017-11-07T03:35:50.901Z,20.20
2017-11-07T03:38:17.220Z,17.87
2017-11-07T03:40:43.568Z,19.40
2017-11-07T03:43:09.866Z,23.00
2017-11-07T03:45:36.201Z,19.20
2017-11-07T03:48:02.612Z,16.40
2017-11-07T03:50:29.700Z,18.53
2017-11-07T03:52:55.984Z,23.80
2017-11-07T03:55:23.025Z,19.07
2017-11-07T03:57:49.341Z,21.20
2017-11-07T04:00:15.640Z,21.00
2017-11-07T04:02:41.993Z,27.57
2017-11-07T04:05:08.281Z,16.20
2017-11-07T04:07:34.588Z,18.57
2017-11-07T04:10:01.639Z,17.90
2017-11-07T04:12:28.668Z,16.50
2017-11-07T04:14:55.037Z,17.23
2017-11-07T04:17:21.319Z,13.83
2017-11-07T04:19:47.664Z,13.90
2017-11-07T04:22:13.981Z,17.40
2017-11-07T04:24:40.279Z,18.47
2017-11-07T04:27:06.600Z,18.40
2017-11-07T04:29:32.972Z,13.10
2017-11-07T04:31:59.281Z,16.40
2017-11-07T04:34:25.659Z,15.73
2017-11-07T04:36:52.668Z,19.23
2017-11-07T04:39:18.951Z,13.10
2017-11-07T04:41:45.256Z,16.00
2017-11-07T04:44:12.284Z,17.27
2017-11-07T04:46:39.332Z,15.70
2017-11-07T04:49:06.357Z,14.87
2017-11-07T04:51:32.677Z,19.67
2017-11-07T04:53:58.964Z,14.53
2017-11-07T04:56:25.974Z,17.67
2017-11-07T04:58:52.264Z,21.07
2017-11-07T05:01:18.539Z,14.70
2017-11-07T05:03:44.876Z,14.63
2017-11-07T05:06:11.285Z,18.70
2017-11-07T05:08:37.640Z,15.87
2017-11-07T05:11:05.391Z,17.57
2017-11-07T05:13:31.691Z,15.23
2017-11-07T05:15:58.077Z,15.50
2017-11-07T05:18:25.114Z,17.17
2017-11-07T05:20:51.417Z,16.67
2017-11-07T05:23:17.717Z,16.23
2017-11-07T05:25:44.014Z,16.13
2017-11-07T05:28:11.048Z,17.50
2017-11-07T05:30:37.328Z,14.60
2017-11-07T05:33:03.669Z,13.70
2017-11-07T05:35:29.952Z,15.63
2017-11-07T05:37:57.037Z,19.60
2017-11-07T05:40:23.372Z,19.67
2017-11-07T05:42:49.692Z,17.23
2017-11-07T05:45:15.979Z,15.30
2017-11-07T05:47:42.280Z,14.93
2017-11-07T05:50:08.540Z,15.30
2017-11-07T05:52:35.624Z,18.47
2017-11-07T05:55:01.950Z,18.23
2017-11-07T05:57:28.289Z,15.53
2017-11-07T05:59:54.593Z,17.00
2017-11-07T06:02:21.657Z,17.27
2017-11-07T06:04:47.988Z,21.10
2017-11-07T06:07:14.263Z,13.90
2017-11-07T06:09:40.589Z,16.67
2017-11-07T06:12:06.980Z,15.40
2017-11-07T06:14:33.310Z,15.90
2017-11-07T06:16:59.633Z,17.50
2017-11-07T06:19:25.979Z,19.43
2017-11-07T06:21:52.473Z,18.40
2017-11-07T06:24:18.964Z,19.90
2017-11-07T06:26:45.253Z,15.20
2017-11-07T06:29:12.333Z,16.17
2017-11-07T06:31:39.025Z,18.70
2017-11-07T06:34:05.326Z,15.63
2017-11-07T06:36:31.633Z,22.77
2017-11-07T06:38:57.964Z,13.63
2017-11-07T06:41:24.252Z,18.07
2017-11-07T06:43:51.407Z,22.80
2017-11-07T06:46:18.445Z,15.97
2017-11-07T06:48:45.507Z,16.97
2017-11-07T06:51:12.580Z,18.20
2017-11-07T06:53:38.939Z,18.37
2017-11-07T06:56:05.280Z,15.53
2017-11-07T06:58:31.613Z,17.80
2017-11-07T07:00:57.932Z,15.53
2017-11-07T07:03:24.203Z,16.40
2017-11-07T07:05:51.374Z,13.67
2017-11-07T07:08:17.647Z,16.73
2017-11-07T07:10:43.996Z,20.20
2017-11-07T07:13:11.112Z,17.70
2017-11-07T07:15:37.488Z,15.80
2017-11-07T07:18:04.516Z,16.20
2017-11-07T07:20:30.816Z,19.90
2017-11-07T07:22:57.141Z,15.20
2017-11-07T07:25:23.437Z,17.90
2017-11-07T07:27:49.741Z,19.97
2017-11-07T07:30:16.077Z,17.97
2017-11-07T07:32:43.123Z,16.47
2017-11-07T07:35:09.421Z,16.17
2017-11-07T07:37:35.724Z,20.70
2017-11-07T07:40:02.034Z,15.93
2017-11-07T07:42:28.325Z,19.30
2017-11-07T07:44:54.621Z,16.17
2017-11-07T07:47:20.910Z,17.77
2017-11-07T07:49:47.992Z,14.57
2017-11-07T07:52:23.332Z,16.90
2017-11-07T07:54:49.680Z,16.00
2017-11-07T07:57:16.034Z,14.83
2017-11-07T07:59:42.362Z,13.73
2017-11-07T08:02:09.464Z,14.57
2017-11-07T08:04:35.796Z,16.47
2017-11-07T08:07:02.165Z,17.13
2017-11-07T08:09:28.545Z,20.10
2017-11-07T08:11:54.942Z,15.87
2017-11-07T08:14:21.375Z,14.27
2017-11-07T08:16:47.743Z,17.70
2017-11-07T08:19:14.052Z,16.27
2017-11-07T08:21:41.114Z,21.17
2017-11-07T08:24:08.180Z,16.50
2017-11-07T08:26:34.480Z,20.13
2017-11-07T08:29:01.510Z,14.90
2017-11-07T08:31:27.813Z,17.27
2017-11-07T08:33:54.112Z,15.53
2017-11-07T08:36:20.433Z,15.40
2017-11-07T08:38:46.752Z,16.27
2017-11-07T08:41:13.814Z,16.07
2017-11-07T08:43:40.234Z,18.13
2017-11-07T08:46:07.463Z,17.53
2017-11-07T08:48:33.753Z,25.93
2017-11-07T08:51:00.173Z,19.17
2017-11-07T08:53:26.489Z,20.83
2017-11-07T08:55:52.807Z,15.40
2017-11-07T08:58:19.870Z,16.90
2017-11-07T09:00:46.172Z,16.53
2017-11-07T09:03:13.215Z,19.33
2017-11-07T09:05:39.507Z,22.63
2017-11-07T09:08:05.917Z,16.37
2017-11-07T09:10:32.201Z,22.27
2017-11-07T09:12:58.512Z,22.80
2017-11-07T09:15:24.828Z,16.70
2017-11-07T09:17:51.186Z,17.47
2017-11-07T09:20:17.667Z,15.07
2017-11-07T09:22:44.056Z,18.33
2017-11-07T09:25:12.025Z,17.07
2017-11-07T09:27:38.329Z,14.73
2017-11-07T09:30:04.608Z,18.13
2017-11-07T09:32:31.670Z,14.87
2017-11-07T09:34:57.964Z,15.17
2017-11-07T09:37:24.272Z,15.27
2017-11-07T09:39:50.596Z,20.17
2017-11-07T09:42:16.928Z,15.90
2017-11-07T09:44:43.220Z,14.93
2017-11-07T09:47:09.525Z,16.53
2017-11-07T09:49:36.605Z,14.17
2017-11-07T09:52:02.884Z,18.23
2017-11-07T09:54:29.185Z,16.70
2017-11-07T09:56:55.522Z,14.73
2017-11-07T09:59:21.857Z,15.80
2017-11-07T10:01:48.177Z,19.60
2017-11-07T10:04:14.463Z,21.70
2017-11-07T10:06:41.527Z,14.00
2017-11-07T10:09:07.812Z,18.73
2017-11-07T10:11:34.136Z,14.90
2017-11-07T10:14:00.630Z,20.10
2017-11-07T10:16:26.911Z,15.03
2017-11-07T10:18:53.244Z,15.60
2017-11-07T10:21:19.663Z,18.20
2017-11-07T10:23:46.185Z,16.30
2017-11-07T10:26:12.537Z,22.33
2017-11-07T10:28:38.856Z,18.97
2017-11-07T10:31:05.208Z,20.53
2017-11-07T10:33:31.483Z,13.47
2017-11-07T10:35:57.816Z,18.07
2017-11-07T10:38:24.096Z,16.00
2017-11-07T10:40:50.408Z,12.83
2017-11-07T10:43:16.734Z,14.10
2017-11-07T10:45:43.024Z,14.30
2017-11-07T10:48:09.314Z,17.63
2017-11-07T10:50:36.388Z,12.80
2017-11-07T10:53:02.729Z,13.80
2017-11-07T10:55:29.039Z,12.60
2017-11-07T10:57:56.247Z,15.10
2017-11-07T11:00:22.558Z,22.03
2017-11-07T11:02:48.847Z,16.57
2017-11-07T11:05:16.003Z,17.43
2017-11-07T11:07:42.309Z,15.80
2017-11-07T11:10:10.121Z,15.10
2017-11-07T11:12:36.388Z,19.70
2017-11-07T11:15:02.726Z,14.90
2017-11-07T11:17:29.064Z,15.60
2017-11-07T11:19:55.411Z,22.03
2017-11-07T11:22:22.499Z,15.30
2017-11-07T11:24:48.791Z,13.90
2017-11-07T11:27:15.841Z,14.30
2017-11-07T11:29:42.860Z,15.13
2017-11-07T11:32:09.137Z,11.77
2017-11-07T11:34:35.442Z,15.37
2017-11-07T11:37:02.453Z,15.37
2017-11-07T11:39:28.762Z,13.70
2017-11-07T11:41:55.076Z,15.63
2017-11-07T11:44:21.385Z,16.67
2017-11-07T11:46:48.416Z,14.80
2017-11-07T11:49:15.773Z,15.67
2017-11-07T11:51:42.956Z,17.40
2017-11-07T11:54:09.289Z,16.70
2017-11-07T11:56:36.495Z,16.20
2017-11-07T11:59:03.500Z,16.40
2017-11-07T12:01:29.803Z,17.43
2017-11-07T12:03:56.110Z,18.10
2017-11-07T12:06:23.148Z,12.50
2017-11-07T12:08:50.192Z,17.40
2017-11-07T12:11:17.493Z,13.93
2017-11-07T12:13:43.963Z,18.20
2017-11-07T12:16:10.259Z,17.40
2017-11-07T12:18:36.569Z,15.20
2017-11-07T12:21:03.096Z,19.37
2017-11-07T12:23:30.198Z,15.30
2017-11-07T12:25:56.481Z,16.93
2017-11-07T12:28:22.821Z,17.13
2017-11-07T12:30:49.101Z,15.00
2017-11-07T12:33:15.424Z,20.43
2017-11-07T12:35:41.732Z,19.40
2017-11-07T12:38:08.020Z,17.50
2017-11-07T12:40:35.060Z,12.87
2017-11-07T12:43:02.083Z,19.87
2017-11-07T12:45:28.415Z,20.33
2017-11-07T12:47:54.713Z,14.57
2017-11-07T12:50:33.145Z,20.13
2017-11-07T12:52:59.413Z,14.37
2017-11-07T12:55:26.456Z,16.97
2017-11-07T12:57:53.500Z,22.30
2017-11-07T13:00:20.552Z,14.63
2017-11-07T13:02:47.581Z,15.43
2017-11-07T13:05:13.910Z,17.27
2017-11-07T13:07:40.217Z,15.50
2017-11-07T13:10:06.548Z,14.70
2017-11-07T13:12:32.839Z,13.90
2017-11-07T13:14:59.130Z,21.23
2017-11-07T13:17:25.424Z,19.43
2017-11-07T13:19:51.725Z,14.70
2017-11-07T13:22:18.009Z,15.50
2017-11-07T13:24:44.352Z,17.57
2017-11-07T13:27:11.416Z,17.27
2017-11-07T13:29:38.500Z,17.30
2017-11-07T13:32:04.785Z,21.90
2017-11-07T13:34:31.875Z,15.77
2017-11-07T13:36:58.183Z,12.80
2017-11-07T13:39:24.496Z,16.87
2017-11-07T13:41:51.594Z,17.17
2017-11-07T13:44:17.913Z,12.93
2017-11-07T13:46:44.312Z,15.00
2017-11-07T13:49:11.655Z,16.83
2017-11-07T13:51:38.707Z,18.80
2017-11-07T13:54:05.752Z,14.50
2017-11-07T13:56:32.818Z,14.40
2017-11-07T13:58:59.887Z,16.93
2017-11-07T14:01:26.207Z,17.57
2017-11-07T14:03:52.499Z,19.33
2017-11-07T14:06:18.783Z,20.73
2017-11-07T14:08:45.090Z,13.73
2017-11-07T14:11:11.404Z,14.00
2017-11-07T14:13:38.476Z,15.33
2017-11-07T14:16:04.775Z,14.60
2017-11-07T14:18:31.855Z,16.20
2017-11-07T14:20:58.151Z,15.33
2017-11-07T14:23:25.178Z,14.17
2017-11-07T14:25:51.512Z,15.40
2017-11-07T14:28:17.870Z,12.23
2017-11-07T14:30:44.904Z,16.40
2017-11-07T14:33:11.318Z,14.63
2017-11-07T14:35:38.369Z,13.47
2017-11-07T14:38:04.656Z,17.33
2017-11-07T14:40:30.990Z,14.30
2017-11-07T14:42:57.308Z,15.87
2017-11-07T14:45:23.601Z,14.37
2017-11-07T14:47:50.121Z,16.63
2017-11-07T14:50:16.421Z,14.73
2017-11-07T14:52:43.000Z,19.70
2017-11-07T14:55:09.293Z,13.37
2017-11-07T14:57:35.669Z,13.60
2017-11-07T15:00:02.738Z,17.43
2017-11-07T15:02:29.081Z,17.20
2017-11-07T15:04:55.405Z,16.33
2017-11-07T15:07:21.699Z,17.03
2017-11-07T15:09:47.973Z,16.73
2017-11-07T15:12:14.259Z,12.00
2017-11-07T15:14:40.583Z,14.20
2017-11-07T15:17:06.868Z,15.57
2017-11-07T15:19:33.195Z,18.03
2017-11-07T15:21:59.529Z,20.07
2017-11-07T15:24:25.853Z,16.20
2017-11-07T15:26:52.176Z,14.03
2017-11-07T15:29:18.440Z,15.60
2017-11-07T15:31:44.775Z,18.80
2017-11-07T15:34:11.081Z,16.97
2017-11-07T15:36:37.458Z,16.93
2017-11-07T15:39:04.461Z,13.53
2017-11-07T15:41:30.744Z,15.63
2017-11-07T15:43:57.828Z,17.80
2017-11-07T15:46:24.145Z,16.90
2017-11-07T15:48:50.491Z,17.13
2017-11-07T15:51:16.909Z,18.20
2017-11-07T15:53:43.220Z,13.73
2017-11-07T15:56:10.244Z,15.97
2017-11-07T15:58:37.292Z,15.50
2017-11-07T16:01:04.313Z,16.10
2017-11-07T16:03:30.642Z,14.10
2017-11-07T16:05:56.958Z,16.47
2017-11-07T16:08:23.260Z,16.30
2017-11-07T16:10:50.300Z,13.73
2017-11-07T16:13:17.393Z,16.10
2017-11-07T16:15:43.800Z,14.03
2017-11-07T16:18:10.077Z,13.90
2017-11-07T16:20:37.828Z,17.60
2017-11-07T16:23:04.144Z,14.83
2017-11-07T16:25:30.442Z,13.93
2017-11-07T16:27:56.741Z,18.73
2017-11-07T16:30:23.033Z,12.47
2017-11-07T16:32:49.356Z,19.63
2017-11-07T16:35:15.632Z,16.00
2017-11-07T16:37:43.437Z,14.23
2017-11-07T16:40:09.812Z,12.70
2017-11-07T16:42:36.119Z,16.30
2017-11-07T16:45:02.421Z,15.30
2017-11-07T16:47:28.725Z,17.73
2017-11-07T16:49:55.046Z,17.10
2017-11-07T16:52:21.372Z,14.73
2017-11-07T16:54:49.151Z,16.37
2017-11-07T16:57:16.217Z,14.70
2017-11-07T16:59:43.268Z,16.90
2017-11-07T17:02:09.617Z,17.50
2017-11-07T17:04:36.053Z,16.03
2017-11-07T17:07:02.389Z,24.70
2017-11-07T17:09:28.724Z,11.73
2017-11-07T17:11:55.075Z,17.03
2017-11-07T17:14:21.675Z,15.63
2017-11-07T17:16:47.955Z,20.53
2017-11-07T17:19:15.029Z,17.17
2017-11-07T17:21:42.104Z,17.20
2017-11-07T17:24:08.449Z,16.67
2017-11-07T17:26:34.769Z,16.87
2017-11-07T17:29:01.062Z,18.60
2017-11-07T17:31:28.115Z,17.30
2017-11-07T17:33:55.293Z,18.97
2017-11-07T17:36:21.597Z,17.00
2017-11-07T17:38:48.649Z,18.63
2017-11-07T17:41:14.989Z,16.27
2017-11-07T17:43:41.293Z,18.67
2017-11-07T17:46:08.297Z,20.47
2017-11-07T17:48:34.630Z,17.60
2017-11-07T17:51:00.942Z,16.43
2017-11-07T17:53:27.291Z,18.17
2017-11-07T17:55:53.648Z,19.43
2017-11-07T17:58:19.960Z,21.00
2017-11-07T18:00:46.261Z,15.77
2017-11-07T18:03:12.592Z,14.47
2017-11-07T18:05:38.941Z,17.40
2017-11-07T18:08:05.257Z,12.93
2017-11-07T18:10:31.561Z,19.83
2017-11-07T18:12:57.873Z,16.47
2017-11-07T18:15:25.006Z,17.77
2017-11-07T18:17:52.089Z,15.87
2017-11-07T18:20:18.407Z,17.53
2017-11-07T18:22:45.456Z,16.63
2017-11-07T18:25:12.698Z,17.50
2017-11-07T18:27:39.917Z,16.90
2017-11-07T18:30:06.222Z,16.50
2017-11-07T18:32:32.562Z,16.70
2017-11-07T18:34:58.904Z,17.37
2017-11-07T18:37:25.268Z,14.23
2017-11-07T18:39:52.336Z,16.33
2017-11-07T18:44:56.885Z,18.13
2017-11-07T18:47:23.437Z,16.07
2017-11-07T18:49:49.725Z,18.67
2017-11-07T18:52:16.857Z,16.47
2017-11-07T18:54:43.205Z,16.93
2017-11-07T18:57:10.263Z,17.83
2017-11-07T18:59:36.568Z,23.70
2017-11-07T19:02:03.069Z,18.73
2017-11-07T19:04:30.401Z,21.67
2017-11-07T19:06:56.705Z,17.47
2017-11-07T19:09:23.816Z,17.57
2017-11-07T19:11:50.118Z,16.53
2017-11-07T19:14:16.481Z,19.87
2017-11-07T19:16:43.050Z,16.30
2017-11-07T19:19:10.094Z,17.80
2017-11-07T19:21:37.213Z,18.83
2017-11-07T19:24:03.530Z,22.17
2017-11-07T19:26:29.874Z,17.80
2017-11-07T19:28:56.183Z,18.37
2017-11-07T19:31:22.565Z,17.27
2017-11-07T19:33:49.599Z,19.30
2017-11-07T19:36:16.679Z,21.33
2017-11-07T19:38:43.025Z,24.83
2017-11-07T19:41:09.344Z,19.17
2017-11-07T19:43:35.685Z,19.53
2017-11-07T19:46:01.997Z,19.60
2017-11-07T19:48:28.335Z,24.87
2017-11-07T19:50:54.647Z,25.33
2017-11-07T19:53:21.730Z,20.43
2017-11-07T19:55:48.041Z,20.73
2017-11-07T19:58:14.378Z,21.10
2017-11-07T20:00:40.697Z,20.13
2017-11-07T20:03:07.030Z,22.90
2017-11-07T20:05:33.396Z,19.63
2017-11-07T20:07:59.721Z,20.20
2017-11-07T20:10:26.059Z,22.23
2017-11-07T20:12:52.397Z,22.53
2017-11-07T20:15:18.788Z,23.43
2017-11-07T20:17:45.194Z,24.67
2017-11-07T20:20:12.212Z,24.10
2017-11-07T20:22:38.519Z,19.57
2017-11-07T20:25:04.882Z,20.33
2017-11-07T20:27:31.218Z,28.93
2017-11-07T20:29:57.693Z,20.57
2017-11-07T20:32:24.031Z,22.87
2017-11-07T20:34:50.357Z,19.50
2017-11-07T20:37:16.669Z,28.23
2017-11-07T20:39:43.790Z,22.23
2017-11-07T20:42:10.177Z,24.90
2017-11-07T20:44:36.628Z,21.13
2017-11-07T20:47:02.974Z,24.90
2017-11-07T20:49:29.325Z,28.33
2017-11-07T20:51:56.439Z,21.97
2017-11-07T20:54:22.765Z,25.60
2017-11-07T20:56:49.106Z,23.27
2017-11-07T20:59:15.449Z,23.77
2017-11-07T21:01:41.761Z,26.10
2017-11-07T21:04:08.114Z,28.43
2017-11-07T21:06:34.430Z,26.40
2017-11-07T21:09:00.842Z,26.97
2017-11-07T21:11:27.560Z,22.93
2017-11-07T21:13:54.113Z,27.03
2017-11-07T21:16:20.532Z,23.80
2017-11-07T21:18:46.908Z,30.63
2017-11-07T21:21:13.258Z,30.93
2017-11-07T21:23:39.591Z,24.27
2017-11-07T21:26:06.705Z,21.80
2017-11-07T21:28:33.089Z,27.67
2017-11-07T21:30:59.424Z,25.00
2017-11-07T21:33:25.834Z,26.60
2017-11-07T21:35:52.879Z,27.63
2017-11-07T21:38:20.922Z,28.10
2017-11-07T21:40:47.312Z,24.73
2017-11-07T21:43:13.624Z,30.23
2017-11-07T21:45:40.673Z,29.00
2017-11-07T21:48:07.937Z,26.17
2017-11-07T21:50:34.233Z,28.40
2017-11-07T21:53:00.609Z,25.67
2017-11-07T21:55:26.959Z,29.77
2017-11-07T21:57:53.285Z,27.17
2017-11-07T22:00:19.624Z,24.20
2017-11-07T22:02:45.937Z,25.30
2017-11-07T22:05:12.289Z,26.23
2017-11-07T22:07:38.649Z,24.67
2017-11-07T22:10:04.990Z,27.70
2017-11-07T22:12:32.081Z,25.60
2017-11-07T22:14:58.517Z,28.70
2017-11-07T22:17:28.041Z,25.70
2017-11-07T22:19:54.364Z,24.20
2017-11-07T22:22:20.881Z,26.33
2017-11-07T22:24:47.384Z,21.67
2017-11-07T22:27:14.432Z,29.33
2017-11-07T22:29:41.548Z,25.17
2017-11-07T22:32:08.096Z,25.80
2017-11-07T22:34:34.424Z,26.77
2017-11-07T22:37:00.753Z,27.10
2017-11-07T22:39:27.048Z,30.20
2017-11-07T22:41:53.413Z,26.27
2017-11-07T22:44:19.777Z,24.93
2017-11-07T22:46:46.107Z,28.63
2017-11-07T22:49:12.410Z,29.40
2017-11-07T22:51:38.732Z,27.40
2017-11-07T22:54:05.073Z,24.53
2017-11-07T22:56:31.412Z,24.97
2017-11-07T22:58:58.465Z,26.10
2017-11-07T23:01:25.577Z,28.20
2017-11-07T23:03:51.882Z,24.10
2017-11-07T23:06:18.181Z,25.73
2017-11-07T23:08:45.241Z,28.80
2017-11-07T23:11:11.537Z,26.50
2017-11-07T23:13:37.917Z,26.17
2017-11-07T23:16:04.196Z,32.60
2017-11-07T23:18:30.497Z,24.17
2017-11-07T23:20:56.837Z,30.67
2017-11-07T23:23:23.169Z,28.60
2017-11-07T23:25:49.476Z,32.33
2017-11-07T23:28:15.835Z,27.27
2017-11-07T23:30:43.904Z,24.60
2017-11-07T23:33:10.199Z,28.00
2017-11-07T23:35:36.520Z,26.30
2017-11-07T23:38:02.827Z,29.23
2017-11-07T23:40:29.888Z,26.90
2017-11-07T23:42:56.243Z,24.07
2017-11-07T23:45:22.529Z,25.83
2017-11-07T23:47:49.593Z,32.50
2017-11-07T23:50:15.889Z,27.17
2017-11-07T23:52:42.200Z,25.07
2017-11-07T23:55:08.521Z,28.30
2017-11-07T23:57:34.824Z,25.43
